Time;durP1;ratioP1;P1;durP2;ratioP2;P2;SDS_P1;SDS_P2;PMS_P1;PMS_P2;Temp;Humidity;BMP_temperature;BMP_pressure;BME280_temperature;BME280_humidity;BME280_pressure;Samples;Min_cycle;Max_cycle;Signal;HPM_P1;HPM_P2
2021/04/26 00:00:02;;;;;;;3.40;2.70;;;7.70;84.10;;;;;;5054548;23;20467;-83
2021/04/26 00:02:04;;;;;;;2.60;2.40;;;7.80;84.00;;;;;;5054064;23;21238;-82
2021/04/26 00:04:06;;;;;;;3.10;2.50;;;7.90;83.70;;;;;;5053385;23;20457;-84
2021/04/26 00:06:09;;;;;;;4.40;3.00;;;7.90;83.50;;;;;;5055002;23;20450;-83
2021/04/26 00:08:11;;;;;;;3.93;2.47;;;7.80;83.80;;;;;;5054912;23;20986;-84
2021/04/26 00:10:15;;;;;;;2.70;2.43;;;7.60;84.20;;;;;;5044454;23;20461;-83
2021/04/26 00:12:17;;;;;;;2.63;2.43;;;7.60;84.40;;;;;;5053313;23;20527;-83
2021/04/26 00:14:19;;;;;;;2.53;2.20;;;7.40;84.80;;;;;;5055257;23;20513;-84
2021/04/26 00:16:21;;;;;;;4.27;2.73;;;7.50;84.80;;;;;;5055042;23;20424;-84
2021/04/26 00:18:23;;;;;;;6.40;3.00;;;7.50;84.90;;;;;;5053435;23;20453;-83
2021/04/26 00:20:29;;;;;;;7.77;2.90;;;7.40;85.00;;;;;;5054156;23;20508;-84
2021/04/26 00:22:32;;;;;;;3.93;2.87;;;7.50;85.00;;;;;;5055212;23;20534;-84
2021/04/26 00:24:34;;;;;;;5.50;2.60;;;7.40;85.00;;;;;;5054741;23;20453;-84
2021/04/26 00:26:36;;;;;;;3.13;2.70;;;7.40;85.00;;;;;;5053650;23;20460;-83
2021/04/26 00:28:38;;;;;;;2.87;2.40;;;7.30;85.40;;;;;;5053924;23;20453;-84
2021/04/26 00:30:40;;;;;;;3.80;2.83;;;7.30;85.60;;;;;;5059106;23;20453;-85
2021/04/26 00:32:42;;;;;;;5.33;2.70;;;7.20;85.80;;;;;;5059967;23;20457;-84
2021/04/26 00:34:45;;;;;;;3.50;2.27;;;7.30;86.00;;;;;;5059807;23;20508;-84
2021/04/26 00:36:47;;;;;;;5.00;2.80;;;7.20;86.10;;;;;;5058879;23;20476;-83
2021/04/26 00:38:49;;;;;;;2.60;2.40;;;7.20;86.10;;;;;;5055874;23;20476;-84
2021/04/26 00:40:51;;;;;;;3.33;2.60;;;7.20;86.00;;;;;;5055801;23;20954;-84
2021/04/26 00:42:54;;;;;;;6.20;2.70;;;7.20;86.20;;;;;;5055685;23;20527;-84
2021/04/26 00:44:56;;;;;;;4.73;2.80;;;7.10;86.40;;;;;;5055704;23;20541;-85
2021/04/26 00:46:58;;;;;;;4.33;2.80;;;7.10;86.70;;;;;;5055117;23;20480;-85
2021/04/26 00:49:00;;;;;;;3.73;2.70;;;7.10;86.40;;;;;;5055999;23;20449;-85
2021/04/26 00:51:02;;;;;;;5.40;2.80;;;7.20;86.20;;;;;;5065957;23;20456;-86
2021/04/26 00:53:05;;;;;;;4.20;2.63;;;7.20;86.20;;;;;;5067478;23;20471;-85
2021/04/26 00:55:15;;;;;;;3.00;2.47;;;7.10;86.40;;;;;;5062951;23;20449;-85
2021/04/26 00:57:17;;;;;;;3.23;2.40;;;7.10;86.70;;;;;;5063346;23;20449;-85
2021/04/26 00:59:19;;;;;;;5.37;2.70;;;7.10;86.70;;;;;;5062271;23;20453;-85
2021/04/26 01:01:22;;;;;;;3.70;2.57;;;7.10;86.70;;;;;;5062937;23;20466;-84
2021/04/26 01:03:24;;;;;;;4.43;3.13;;;7.20;86.70;;;;;;5061258;23;20457;-84
2021/04/26 01:05:29;;;;;;;3.83;2.73;;;7.20;86.60;;;;;;5058266;23;20474;-83
2021/04/26 01:07:34;;;;;;;3.40;2.47;;;7.30;86.60;;;;;;5055250;23;20450;-83
2021/04/26 01:09:36;;;;;;;4.97;3.43;;;7.30;86.40;;;;;;5047049;23;20430;-83
2021/04/26 01:11:48;;;;;;;3.30;2.73;;;7.30;86.20;;;;;;5055695;23;20433;-83
2021/04/26 01:14:00;;;;;;;6.23;2.47;;;7.40;86.30;;;;;;5057140;23;20449;-84
2021/04/26 01:16:08;;;;;;;4.20;3.80;;;7.50;86.00;;;;;;5060748;23;20452;-84
2021/04/26 01:18:22;;;;;;;3.83;3.00;;;7.50;85.90;;;;;;5050510;23;20543;-84
2021/04/26 01:20:56;;;;;;;3.40;2.53;;;7.40;86.00;;;;;;5057962;23;20547;-85
2021/04/26 01:23:39;;;;;;;3.40;2.57;;;7.20;86.30;;;;;;5057491;23;20451;-86
2021/04/26 01:25:43;;;;;;;4.80;2.80;;;7.10;86.60;;;;;;4984519;23;20548;-84
2021/04/26 01:27:58;;;;;;;3.90;2.53;;;7.10;86.60;;;;;;5045302;23;20424;-84
2021/04/26 01:30:12;;;;;;;3.10;2.47;;;7.10;86.60;;;;;;5057720;23;20445;-84
2021/04/26 01:32:23;;;;;;;4.43;2.90;;;7.10;86.80;;;;;;5055916;23;20441;-84
2021/04/26 01:34:29;;;;;;;5.13;2.60;;;7.10;86.80;;;;;;5055555;23;20483;-83
2021/04/26 01:36:33;;;;;;;3.23;2.80;;;7.00;86.70;;;;;;5054944;23;20476;-83
2021/04/26 01:38:37;;;;;;;4.20;2.43;;;7.00;87.10;;;;;;5046078;23;20517;-83
2021/04/26 01:40:43;;;;;;;4.13;2.50;;;6.70;87.40;;;;;;5053809;23;20559;-83
2021/04/26 01:42:48;;;;;;;3.97;2.40;;;6.60;87.70;;;;;;5055464;23;20445;-84
2021/04/26 01:44:50;;;;;;;7.73;2.67;;;6.60;87.80;;;;;;5054769;23;20488;-84
2021/04/26 01:46:53;;;;;;;3.90;2.67;;;6.70;87.70;;;;;;5054721;23;20476;-83
2021/04/26 01:48:56;;;;;;;4.80;2.73;;;6.80;87.40;;;;;;5047659;23;20496;-83
2021/04/26 01:50:59;;;;;;;4.53;2.40;;;6.90;87.20;;;;;;5055483;23;20471;-85
2021/04/26 01:53:02;;;;;;;4.23;2.70;;;6.80;87.20;;;;;;5055251;23;20507;-85
2021/04/26 01:55:06;;;;;;;4.63;2.17;;;6.80;87.20;;;;;;5055181;23;20459;-83
2021/04/26 01:57:09;;;;;;;3.90;2.50;;;6.80;87.20;;;;;;5046449;23;20488;-83
2021/04/26 01:59:12;;;;;;;3.70;2.10;;;6.60;87.40;;;;;;5053597;23;20543;-83
2021/04/26 02:01:16;;;;;;;2.57;2.37;;;6.60;87.50;;;;;;5052974;23;20464;-83
2021/04/26 02:03:21;;;;;;;4.00;2.20;;;6.50;87.30;;;;;;5053037;23;20476;-84
2021/04/26 02:05:25;;;;;;;4.03;2.03;;;6.60;86.90;;;;;;5052579;23;20445;-84
2021/04/26 02:07:28;;;;;;;2.90;2.50;;;6.40;87.00;;;;;;5051633;23;20456;-84
2021/04/26 02:09:33;;;;;;;3.60;2.80;;;6.30;87.60;;;;;;5051551;23;20455;-84
2021/04/26 02:11:37;;;;;;;3.13;2.83;;;6.10;88.20;;;;;;5053468;23;20455;-85
2021/04/26 02:13:40;;;;;;;3.10;2.53;;;6.00;88.60;;;;;;5052823;23;20525;-84
2021/04/26 02:15:43;;;;;;;3.80;2.23;;;6.00;88.90;;;;;;5051670;23;20498;-84
2021/04/26 02:17:46;;;;;;;3.20;2.30;;;6.00;88.80;;;;;;5054711;23;20493;-86
2021/04/26 02:19:48;;;;;;;2.87;2.30;;;5.80;88.90;;;;;;5054768;23;20448;-84
2021/04/26 02:21:51;;;;;;;5.10;2.30;;;5.80;88.70;;;;;;5056175;23;20459;-84
2021/04/26 02:23:54;;;;;;;2.60;2.40;;;5.70;89.00;;;;;;5055884;23;20480;-85
2021/04/26 02:25:57;;;;;;;2.90;2.30;;;5.70;89.00;;;;;;5055644;23;20468;-85
2021/04/26 02:28:00;;;;;;;5.07;2.90;;;5.60;89.10;;;;;;5054888;23;20460;-84
2021/04/26 02:30:02;;;;;;;4.60;2.60;;;5.60;89.30;;;;;;5056509;23;20452;-85
2021/04/26 02:32:08;;;;;;;3.00;2.10;;;5.60;89.50;;;;;;5054679;23;20503;-83
2021/04/26 02:34:15;;;;;;;3.40;2.60;;;5.50;89.20;;;;;;5055209;23;20473;-83
2021/04/26 02:36:24;;;;;;;4.47;2.30;;;5.50;89.10;;;;;;5055105;23;20523;-84
2021/04/26 02:38:31;;;;;;;3.10;2.50;;;5.60;88.80;;;;;;5047748;23;20474;-84
2021/04/26 02:40:38;;;;;;;3.80;2.30;;;5.50;88.60;;;;;;5055185;23;20457;-84
2021/04/26 02:42:43;;;;;;;5.43;2.40;;;5.50;88.30;;;;;;5058267;23;20455;-85
2021/04/26 02:44:46;;;;;;;3.10;2.20;;;5.50;88.40;;;;;;5057612;23;20461;-85
2021/04/26 02:46:50;;;;;;;4.30;2.43;;;5.50;88.30;;;;;;5056968;23;20474;-84
2021/04/26 02:48:54;;;;;;;3.40;2.60;;;5.40;88.20;;;;;;5056583;23;20455;-83
2021/04/26 02:50:59;;;;;;;5.60;2.20;;;5.40;88.20;;;;;;5054894;23;20425;-83
2021/04/26 02:53:01;;;;;;;3.57;2.13;;;5.50;87.70;;;;;;5046627;23;20470;-83
2021/04/26 02:55:06;;;;;;;5.67;2.67;;;5.50;87.40;;;;;;5054843;23;20459;-84
2021/04/26 02:57:09;;;;;;;2.50;2.30;;;5.40;87.30;;;;;;5055791;23;20463;-83
2021/04/26 02:59:16;;;;;;;3.80;2.30;;;5.40;87.30;;;;;;5056597;23;20445;-84
2021/04/26 03:01:19;;;;;;;2.90;2.30;;;5.40;87.20;;;;;;5055804;23;20533;-83
2021/04/26 03:03:21;;;;;;;3.73;2.20;;;5.40;87.40;;;;;;5056281;23;20479;-83
2021/04/26 03:05:25;;;;;;;3.40;2.37;;;5.40;86.90;;;;;;5057529;23;20992;-83
2021/04/26 03:07:27;;;;;;;3.50;2.13;;;5.40;87.10;;;;;;5056286;23;20460;-83
2021/04/26 03:09:30;;;;;;;3.83;3.17;;;5.40;87.20;;;;;;5050481;23;20456;-84
2021/04/26 03:11:35;;;;;;;3.03;2.00;;;5.40;87.10;;;;;;5058149;23;20473;-83
2021/04/26 03:13:38;;;;;;;4.50;2.17;;;5.50;87.20;;;;;;5057876;23;20463;-83
2021/04/26 03:15:41;;;;;;;2.93;2.30;;;5.60;86.70;;;;;;5058404;23;20937;-84
2021/04/26 03:17:44;;;;;;;3.70;2.40;;;5.80;86.70;;;;;;5097184;23;20453;-82
2021/04/26 03:19:46;;;;;;;3.60;2.63;;;6.10;86.40;;;;;;5117032;23;20453;-82
2021/04/26 03:21:49;;;;;;;4.03;2.13;;;6.30;86.30;;;;;;5117311;23;20456;-83
2021/04/26 03:23:51;;;;;;;4.17;2.10;;;6.30;85.40;;;;;;5116422;23;20457;-82
2021/04/26 03:25:57;;;;;;;2.80;2.50;;;6.20;84.80;;;;;;5113740;23;20453;-82
2021/04/26 03:28:00;;;;;;;2.73;2.17;;;6.10;85.00;;;;;;5105346;23;20512;-82
2021/04/26 03:30:05;;;;;;;5.40;2.10;;;6.10;85.30;;;;;;5099658;23;20453;-82
2021/04/26 03:32:07;;;;;;;2.00;1.73;;;5.80;85.50;;;;;;5096896;23;20457;-82
2021/04/26 03:34:10;;;;;;;3.87;2.40;;;5.70;86.40;;;;;;5098773;23;21301;-83
2021/04/26 03:36:14;;;;;;;5.20;2.30;;;5.70;86.50;;;;;;5106098;23;20549;-82
2021/04/26 03:38:17;;;;;;;2.80;2.50;;;5.70;86.90;;;;;;5104490;23;20935;-82
2021/04/26 03:40:21;;;;;;;3.30;2.30;;;5.60;87.40;;;;;;5097102;23;21046;-82
2021/04/26 03:42:23;;;;;;;3.40;2.30;;;5.60;87.70;;;;;;5098257;23;20931;-83
2021/04/26 03:44:25;;;;;;;2.60;2.17;;;5.60;87.80;;;;;;5107680;23;20453;-83
2021/04/26 03:46:27;;;;;;;3.87;2.10;;;5.70;87.70;;;;;;5105723;23;20458;-83
2021/04/26 03:48:29;;;;;;;5.40;2.43;;;5.80;87.70;;;;;;5095977;23;20451;-83
2021/04/26 03:50:31;;;;;;;3.23;2.30;;;5.80;87.80;;;;;;5097379;23;20457;-82
2021/04/26 03:52:33;;;;;;;2.70;2.50;;;5.70;88.10;;;;;;5096106;23;20459;-83
2021/04/26 03:54:36;;;;;;;4.70;2.60;;;5.60;88.60;;;;;;5094860;23;20966;-83
2021/04/26 03:56:38;;;;;;;3.17;2.87;;;5.60;88.60;;;;;;5094040;23;20458;-83
2021/04/26 03:58:40;;;;;;;3.00;2.63;;;5.60;88.80;;;;;;5093994;23;20505;-82
2021/04/26 04:00:42;;;;;;;3.77;3.03;;;5.50;89.10;;;;;;5094847;23;20538;-82
2021/04/26 04:02:46;;;;;;;3.40;2.97;;;5.50;89.20;;;;;;5093665;23;20762;-82
2021/04/26 04:04:48;;;;;;;4.90;2.63;;;5.50;89.40;;;;;;5102265;23;20534;-82
2021/04/26 04:06:50;;;;;;;3.63;2.60;;;5.40;89.90;;;;;;5101308;23;20463;-83
2021/04/26 04:08:52;;;;;;;4.50;2.70;;;5.40;90.00;;;;;;5092765;23;20537;-82
2021/04/26 04:10:53;;;;;;;4.73;3.00;;;5.40;90.20;;;;;;5092721;23;20458;-82
2021/04/26 04:12:55;;;;;;;3.57;2.50;;;5.40;89.90;;;;;;5100875;23;20461;-82
2021/04/26 04:14:57;;;;;;;3.00;2.37;;;5.50;89.80;;;;;;5092686;23;20468;-83
2021/04/26 04:17:02;;;;;;;4.07;2.50;;;5.40;89.60;;;;;;5092648;23;20472;-82
2021/04/26 04:19:06;;;;;;;10.00;2.70;;;5.50;89.70;;;;;;5102353;23;20549;-83
2021/04/26 04:21:08;;;;;;;3.10;2.40;;;5.60;89.40;;;;;;5094814;23;20962;-82
2021/04/26 04:23:10;;;;;;;3.90;2.33;;;5.40;89.60;;;;;;5103461;23;20450;-83
2021/04/26 04:25:16;;;;;;;3.10;2.63;;;5.40;89.90;;;;;;5103084;23;20940;-82
2021/04/26 04:27:18;;;;;;;3.20;2.50;;;5.40;89.70;;;;;;5102836;23;20521;-82
2021/04/26 04:29:21;;;;;;;4.37;2.23;;;5.50;89.60;;;;;;5102860;23;20516;-82
2021/04/26 04:31:22;;;;;;;4.50;2.60;;;5.50;89.60;;;;;;5094739;23;20967;-82
2021/04/26 04:33:25;;;;;;;4.07;2.80;;;5.50;89.60;;;;;;5103319;23;20460;-82
2021/04/26 04:35:30;;;;;;;4.10;2.40;;;5.40;89.90;;;;;;5102428;23;20549;-83
2021/04/26 04:37:32;;;;;;;3.40;2.60;;;5.40;90.30;;;;;;5102829;23;20450;-82
2021/04/26 04:39:34;;;;;;;4.10;2.47;;;5.40;90.10;;;;;;5094674;23;20481;-82
2021/04/26 04:41:36;;;;;;;4.20;2.60;;;5.50;90.00;;;;;;5103945;23;20542;-83
2021/04/26 04:43:38;;;;;;;3.33;2.40;;;5.50;89.90;;;;;;5103421;23;20514;-83
2021/04/26 04:45:40;;;;;;;3.60;2.30;;;5.50;89.90;;;;;;5103807;23;20474;-82
2021/04/26 04:47:42;;;;;;;5.40;2.77;;;5.60;89.90;;;;;;5094452;23;20466;-83
2021/04/26 04:49:45;;;;;;;3.70;2.83;;;5.60;89.90;;;;;;5095626;23;20465;-82
2021/04/26 04:51:47;;;;;;;2.70;2.20;;;5.60;90.10;;;;;;5104802;23;20442;-82
2021/04/26 04:53:49;;;;;;;5.50;2.77;;;5.50;90.10;;;;;;5105177;23;20515;-83
2021/04/26 04:55:52;;;;;;;5.27;2.50;;;5.40;90.60;;;;;;5103536;23;20537;-82
2021/04/26 04:57:54;;;;;;;3.90;2.50;;;5.50;90.50;;;;;;5095652;23;20474;-82
2021/04/26 04:59:55;;;;;;;3.23;2.43;;;5.60;90.30;;;;;;5103419;23;20453;-82
2021/04/26 05:01:57;;;;;;;2.90;2.60;;;5.50;90.50;;;;;;5103618;23;20454;-83
2021/04/26 05:03:59;;;;;;;3.90;2.60;;;5.50;90.50;;;;;;5095335;23;20458;-82
2021/04/26 05:06:02;;;;;;;4.23;2.50;;;5.40;90.60;;;;;;5095359;23;20458;-83
2021/04/26 05:08:09;;;;;;;3.13;2.10;;;5.50;90.70;;;;;;5094609;23;20523;-82
2021/04/26 05:10:12;;;;;;;4.10;2.40;;;5.70;90.40;;;;;;5103762;23;20449;-82
2021/04/26 05:12:14;;;;;;;2.67;2.23;;;5.80;89.90;;;;;;5105751;23;20439;-82
2021/04/26 05:14:16;;;;;;;4.27;2.37;;;5.60;90.10;;;;;;5097379;23;20468;-82
2021/04/26 05:16:18;;;;;;;4.97;2.97;;;5.60;90.50;;;;;;5101716;23;20536;-82
2021/04/26 05:18:20;;;;;;;4.27;2.70;;;5.50;90.70;;;;;;5091661;23;20917;-82
2021/04/26 05:20:23;;;;;;;7.53;2.67;;;5.60;90.60;;;;;;5094148;23;21038;-83
2021/04/26 05:22:26;;;;;;;5.73;2.30;;;5.70;90.20;;;;;;5101505;23;20457;-81
2021/04/26 05:24:28;;;;;;;2.77;2.53;;;5.60;90.30;;;;;;5100017;23;20512;-82
2021/04/26 05:26:30;;;;;;;5.50;2.80;;;5.70;90.00;;;;;;5099944;23;20447;-82
2021/04/26 05:28:32;;;;;;;2.80;2.50;;;5.90;89.50;;;;;;5090758;23;20982;-83
2021/04/26 05:30:34;;;;;;;3.17;2.50;;;5.90;89.40;;;;;;5092208;23;20462;-82
2021/04/26 05:32:36;;;;;;;4.33;2.90;;;5.90;89.40;;;;;;5102469;23;20454;-82
2021/04/26 05:34:38;;;;;;;4.17;2.83;;;5.90;89.50;;;;;;5094531;23;20462;-82
2021/04/26 05:36:42;;;;;;;5.23;2.87;;;6.00;89.20;;;;;;5100703;23;20454;-82
2021/04/26 05:38:45;;;;;;;5.20;3.00;;;6.10;89.30;;;;;;5102211;23;20446;-83
2021/04/26 05:40:48;;;;;;;8.23;3.03;;;6.10;89.20;;;;;;5102649;23;20513;-82
2021/04/26 05:42:50;;;;;;;4.50;2.87;;;6.10;89.40;;;;;;5101828;23;20457;-83
2021/04/26 05:44:52;;;;;;;4.83;3.50;;;6.10;89.60;;;;;;5093872;23;20627;-83
2021/04/26 05:46:54;;;;;;;3.40;3.10;;;6.00;89.90;;;;;;5093881;23;20814;-83
2021/04/26 05:48:56;;;;;;;4.00;2.90;;;5.90;89.90;;;;;;5093165;23;20459;-82
2021/04/26 05:50:58;;;;;;;3.43;2.90;;;5.80;90.00;;;;;;5093950;23;20786;-83
2021/04/26 05:53:00;;;;;;;12.47;6.37;;;5.90;90.40;;;;;;5101664;23;20460;-81
2021/04/26 05:55:03;;;;;;;5.53;4.00;;;6.00;90.70;;;;;;5092588;23;20518;-82
2021/04/26 05:57:06;;;;;;;22.80;11.23;;;6.00;90.00;;;;;;5091574;23;20460;-82
2021/04/26 05:59:08;;;;;;;4.30;3.57;;;6.10;90.60;;;;;;5101164;23;20457;-82
2021/04/26 06:01:10;;;;;;;5.00;2.70;;;6.20;89.30;;;;;;5101791;23;20457;-82
2021/04/26 06:03:12;;;;;;;6.37;3.37;;;6.10;89.00;;;;;;5103221;23;20442;-82
2021/04/26 06:05:14;;;;;;;5.70;3.37;;;6.10;88.60;;;;;;5102334;23;20457;-82
2021/04/26 06:07:16;;;;;;;7.90;3.27;;;6.20;88.60;;;;;;5094564;23;20455;-82
2021/04/26 06:09:18;;;;;;;5.80;3.20;;;6.20;88.60;;;;;;5102546;23;20550;-82
2021/04/26 06:11:21;;;;;;;27.40;14.97;;;6.20;88.80;;;;;;5094794;23;20533;-83
2021/04/26 06:13:23;;;;;;;19.23;8.60;;;6.40;88.50;;;;;;5102287;23;20774;-82
2021/04/26 06:15:26;;;;;;;4.53;3.50;;;6.40;88.20;;;;;;5101697;23;20450;-83
2021/04/26 06:17:28;;;;;;;3.13;2.80;;;6.50;87.10;;;;;;5093801;23;20476;-81
2021/04/26 06:19:30;;;;;;;3.60;3.00;;;6.30;87.10;;;;;;5093819;23;20468;-82
2021/04/26 06:21:32;;;;;;;5.00;3.60;;;6.20;87.60;;;;;;5093561;23;20493;-82
2021/04/26 06:23:34;;;;;;;4.10;3.40;;;6.10;87.90;;;;;;5101905;23;20505;-82
2021/04/26 06:25:37;;;;;;;3.20;2.80;;;6.30;88.30;;;;;;5093881;23;20459;-82
2021/04/26 06:27:40;;;;;;;4.27;2.80;;;6.30;87.60;;;;;;5093757;23;20483;-81
2021/04/26 06:29:42;;;;;;;4.20;3.07;;;6.40;87.30;;;;;;5093034;23;20804;-82
2021/04/26 06:31:44;;;;;;;6.43;3.00;;;6.60;86.70;;;;;;5093236;23;20466;-82
2021/04/26 06:33:46;;;;;;;5.60;2.90;;;6.60;86.90;;;;;;5093215;23;20458;-82
2021/04/26 06:35:50;;;;;;;4.13;3.10;;;6.50;86.80;;;;;;5091412;23;20461;-82
2021/04/26 06:37:52;;;;;;;5.37;3.37;;;6.60;86.90;;;;;;5091021;23;20459;-83
2021/04/26 06:39:54;;;;;;;7.00;3.03;;;6.70;86.40;;;;;;5092193;23;20459;-82
2021/04/26 06:41:57;;;;;;;5.00;2.87;;;6.70;86.40;;;;;;5091856;23;20455;-83
2021/04/26 06:43:59;;;;;;;3.30;2.70;;;6.90;86.30;;;;;;5092045;23;20455;-82
2021/04/26 06:46:01;;;;;;;4.00;2.90;;;7.00;85.60;;;;;;5100993;23;20451;-82
2021/04/26 06:48:04;;;;;;;3.70;2.97;;;7.00;85.70;;;;;;5100750;23;20454;-82
2021/04/26 06:50:07;;;;;;;3.20;2.87;;;7.00;85.90;;;;;;5092759;23;20502;-82
2021/04/26 06:52:08;;;;;;;2.50;2.23;;;7.00;85.80;;;;;;5100952;23;20450;-81
2021/04/26 06:54:10;;;;;;;3.93;2.60;;;7.00;85.10;;;;;;5100218;23;20864;-81
2021/04/26 06:56:12;;;;;;;3.00;2.53;;;7.00;85.20;;;;;;5100296;23;21186;-82
2021/04/26 06:58:14;;;;;;;4.20;2.47;;;7.10;85.10;;;;;;5090773;23;20459;-82
2021/04/26 07:00:18;;;;;;;3.60;3.10;;;7.30;84.80;;;;;;5091472;23;20545;-81
2021/04/26 07:02:20;;;;;;;4.30;3.90;;;7.60;84.00;;;;;;5092753;23;20452;-82
2021/04/26 07:04:22;;;;;;;5.93;2.67;;;7.80;82.80;;;;;;5101260;23;20736;-82
2021/04/26 07:06:24;;;;;;;7.20;2.90;;;7.70;82.30;;;;;;5092815;23;20480;-82
2021/04/26 07:08:26;;;;;;;2.90;2.40;;;7.70;82.10;;;;;;5092118;23;20454;-81
2021/04/26 07:10:28;;;;;;;4.20;2.43;;;7.80;82.10;;;;;;5091383;23;20455;-81
2021/04/26 07:12:30;;;;;;;3.20;2.60;;;7.90;80.60;;;;;;5100348;23;20759;-82
2021/04/26 07:14:32;;;;;;;2.83;2.63;;;7.90;80.50;;;;;;5101363;23;20417;-81
2021/04/26 07:16:34;;;;;;;3.27;2.30;;;7.80;80.40;;;;;;5099640;23;20463;-82
2021/04/26 07:18:37;;;;;;;2.57;2.37;;;7.90;79.50;;;;;;5091878;23;20455;-81
2021/04/26 07:20:40;;;;;;;2.80;2.50;;;7.80;78.60;;;;;;5098795;23;21028;-81
2021/04/26 07:22:43;;;;;;;3.90;2.53;;;7.70;79.90;;;;;;5105648;23;20457;-81
2021/04/26 07:24:45;;;;;;;3.60;2.63;;;7.80;79.90;;;;;;5108064;23;20455;-81
2021/04/26 07:26:47;;;;;;;3.67;2.40;;;8.00;80.20;;;;;;5107054;23;20451;-81
2021/04/26 07:28:49;;;;;;;3.60;2.17;;;8.20;78.90;;;;;;5109312;23;20454;-81
2021/04/26 07:30:50;;;;;;;2.60;2.20;;;8.10;78.30;;;;;;5107622;23;20490;-81
2021/04/26 07:32:53;;;;;;;4.77;2.37;;;7.90;77.80;;;;;;5097846;23;20537;-82
2021/04/26 07:34:55;;;;;;;3.97;2.07;;;7.90;77.30;;;;;;5106501;23;20454;-82
2021/04/26 07:36:59;;;;;;;2.93;2.40;;;7.90;77.80;;;;;;5097297;23;20819;-82
2021/04/26 07:39:01;;;;;;;2.80;2.30;;;7.80;77.10;;;;;;5097367;23;20514;-82
2021/04/26 07:41:03;;;;;;;3.20;2.47;;;7.90;77.30;;;;;;5097667;23;20465;-82
2021/04/26 07:43:04;;;;;;;3.83;2.33;;;8.00;77.00;;;;;;5098727;23;20451;-81
2021/04/26 07:45:08;;;;;;;3.70;2.20;;;8.00;76.70;;;;;;5106022;23;20453;-81
2021/04/26 07:47:10;;;;;;;2.70;2.20;;;8.20;76.60;;;;;;5098290;23;20457;-81
2021/04/26 07:49:12;;;;;;;4.90;3.00;;;8.40;76.00;;;;;;5097312;23;20455;-82
2021/04/26 07:51:15;;;;;;;3.40;2.23;;;8.30;75.90;;;;;;5098721;23;20453;-82
2021/04/26 07:53:17;;;;;;;2.60;2.30;;;8.50;74.70;;;;;;5106221;23;20485;-82
2021/04/26 07:55:18;;;;;;;2.17;1.97;;;8.50;73.30;;;;;;5097681;23;20558;-82
2021/04/26 07:57:20;;;;;;;2.47;2.27;;;8.60;73.30;;;;;;5097209;23;21273;-81
2021/04/26 07:59:23;;;;;;;4.00;2.33;;;8.60;73.00;;;;;;5105740;23;20459;-81
2021/04/26 08:01:25;;;;;;;2.20;2.00;;;8.50;72.90;;;;;;5097676;23;20465;-81
2021/04/26 08:03:27;;;;;;;4.70;1.87;;;8.50;72.20;;;;;;5097586;23;20461;-82
2021/04/26 08:05:30;;;;;;;3.40;2.13;;;8.40;71.80;;;;;;5096829;23;20457;-82
2021/04/26 08:07:32;;;;;;;4.13;2.17;;;8.50;71.20;;;;;;5097031;23;20538;-82
2021/04/26 08:09:33;;;;;;;2.77;1.90;;;8.50;70.80;;;;;;5097178;23;20465;-81
2021/04/26 08:11:35;;;;;;;4.17;2.17;;;8.60;71.30;;;;;;5105142;23;20744;-82
2021/04/26 08:13:37;;;;;;;2.63;1.90;;;8.60;70.30;;;;;;5097596;23;20490;-82
2021/04/26 08:15:40;;;;;;;3.93;2.00;;;8.50;70.00;;;;;;5096765;23;20454;-82
2021/04/26 08:17:42;;;;;;;4.10;2.50;;;8.40;70.50;;;;;;5095930;23;20485;-82
2021/04/26 08:19:44;;;;;;;4.53;2.07;;;8.50;70.80;;;;;;5097130;23;20459;-81
2021/04/26 08:21:48;;;;;;;2.03;1.83;;;8.70;70.70;;;;;;5097117;23;20964;-82
2021/04/26 08:23:50;;;;;;;3.00;1.90;;;8.70;70.80;;;;;;5096252;23;20477;-82
2021/04/26 08:25:53;;;;;;;2.20;2.00;;;8.90;70.80;;;;;;5105049;23;20451;-81
2021/04/26 08:27:56;;;;;;;2.33;2.13;;;9.00;70.90;;;;;;5104316;23;20454;-82
2021/04/26 08:29:58;;;;;;;3.03;2.43;;;9.20;70.70;;;;;;5105206;23;21174;-81
2021/04/26 08:32:00;;;;;;;5.50;2.07;;;9.10;70.80;;;;;;5096730;23;20430;-81
2021/04/26 08:34:02;;;;;;;3.90;2.20;;;9.20;70.30;;;;;;5096515;23;20793;-82
2021/04/26 08:36:09;;;;;;;2.77;2.40;;;9.40;70.70;;;;;;5104605;23;20446;-82
2021/04/26 08:38:11;;;;;;;2.70;2.23;;;9.50;70.50;;;;;;5096269;23;20455;-82
2021/04/26 08:40:14;;;;;;;2.90;2.60;;;9.70;70.30;;;;;;5095810;23;20458;-82
2021/04/26 08:42:16;;;;;;;2.80;2.17;;;9.70;69.80;;;;;;5105109;23;20432;-82
2021/04/26 08:44:18;;;;;;;3.67;2.30;;;9.70;69.90;;;;;;5096291;23;20460;-82
2021/04/26 08:46:20;;;;;;;3.27;2.30;;;9.80;70.00;;;;;;5105606;23;20473;-82
2021/04/26 08:48:25;;;;;;;3.70;2.30;;;9.80;70.10;;;;;;5105678;23;20720;-82
2021/04/26 08:50:28;;;;;;;4.63;2.40;;;10.00;69.80;;;;;;5098833;23;20447;-82
2021/04/26 08:52:30;;;;;;;4.23;2.27;;;10.20;69.00;;;;;;5105473;23;20451;-82
2021/04/26 08:54:33;;;;;;;6.23;2.23;;;10.30;68.40;;;;;;5105421;23;20922;-82
2021/04/26 08:56:35;;;;;;;3.87;2.37;;;10.40;69.00;;;;;;5104348;23;20425;-81
2021/04/26 08:58:39;;;;;;;3.17;2.30;;;10.40;68.60;;;;;;5096385;23;20464;-82
2021/04/26 09:00:41;;;;;;;2.33;1.90;;;10.40;68.00;;;;;;5096589;23;20434;-81
2021/04/26 09:02:45;;;;;;;3.03;2.50;;;10.70;68.20;;;;;;5095048;23;20462;-81
2021/04/26 09:04:50;;;;;;;3.20;2.90;;;11.10;67.60;;;;;;5104031;23;20993;-82
2021/04/26 09:06:58;;;;;;;4.87;3.20;;;11.30;67.00;;;;;;5104085;23;20447;-81
2021/04/26 09:09:00;;;;;;;3.40;2.30;;;11.60;67.40;;;;;;5094973;23;20454;-82
2021/04/26 09:11:04;;;;;;;2.83;2.50;;;11.80;66.80;;;;;;5104222;23;20746;-82
2021/04/26 09:13:31;;;;;;;3.00;2.37;;;11.80;65.00;;;;;;5094636;23;20982;-81
2021/04/26 09:15:50;;;;;;;3.33;2.57;;;11.50;66.10;;;;;;5094417;23;20426;-81
2021/04/26 09:17:53;;;;;;;6.20;2.50;;;11.40;66.10;;;;;;5096863;23;20437;-83
2021/04/26 09:19:57;;;;;;;3.33;2.50;;;11.20;66.60;;;;;;5107109;23;20422;-81
2021/04/26 09:21:58;;;;;;;3.37;2.70;;;11.20;66.40;;;;;;5099713;23;20437;-82
2021/04/26 09:24:18;;;;;;;3.80;2.73;;;11.40;66.40;;;;;;5108267;23;20444;-82
2021/04/26 09:26:26;;;;;;;3.50;2.80;;;12.10;65.80;;;;;;5106108;23;20531;-82
2021/04/26 09:28:30;;;;;;;3.37;2.70;;;12.50;64.40;;;;;;5106906;23;20890;-83
2021/04/26 09:30:46;;;;;;;3.70;2.60;;;12.80;64.30;;;;;;5098675;23;20506;-81
2021/04/26 09:32:48;;;;;;;3.70;2.50;;;13.10;62.40;;;;;;5098843;23;21023;-82
2021/04/26 09:34:52;;;;;;;2.47;2.27;;;12.90;62.60;;;;;;5098460;23;20455;-82
2021/04/26 09:37:04;;;;;;;2.80;2.40;;;13.00;62.60;;;;;;5107005;23;20510;-82
2021/04/26 09:39:10;;;;;;;3.87;2.50;;;12.70;61.70;;;;;;5098993;23;20518;-81
2021/04/26 09:41:24;;;;;;;5.00;2.40;;;12.70;62.40;;;;;;5099697;23;20511;-81
2021/04/26 09:43:26;;;;;;;3.10;2.40;;;12.90;62.00;;;;;;5107177;23;20442;-82
2021/04/26 09:45:30;;;;;;;2.47;2.10;;;12.60;62.00;;;;;;5099418;23;20538;-82
2021/04/26 09:47:32;;;;;;;3.20;2.37;;;12.50;61.60;;;;;;5107443;23;20455;-83
2021/04/26 09:49:34;;;;;;;3.33;2.57;;;12.30;61.40;;;;;;5099653;23;20478;-82
2021/04/26 09:51:36;;;;;;;3.20;2.50;;;12.10;61.50;;;;;;5107014;23;20470;-82
2021/04/26 09:53:52;;;;;;;5.43;2.50;;;12.20;61.70;;;;;;5098393;23;20461;-82
2021/04/26 09:55:56;;;;;;;6.90;2.90;;;12.20;62.10;;;;;;5106688;23;20454;-82
2021/04/26 09:57:59;;;;;;;3.00;2.23;;;12.70;62.00;;;;;;5106894;23;20473;-81
2021/04/26 10:00:02;;;;;;;6.03;2.83;;;12.70;61.00;;;;;;5099148;23;20525;-81
2021/04/26 10:02:05;;;;;;;3.60;2.60;;;12.70;61.10;;;;;;5107110;23;20788;-82
2021/04/26 10:04:11;;;;;;;2.87;2.57;;;12.60;61.20;;;;;;5106833;23;21212;-81
2021/04/26 10:06:14;;;;;;;3.13;2.80;;;12.70;61.10;;;;;;5106835;23;21097;-82
2021/04/26 10:08:17;;;;;;;3.77;2.90;;;12.60;61.50;;;;;;5107726;23;20805;-81
2021/04/26 10:10:20;;;;;;;4.27;2.80;;;12.50;61.70;;;;;;5107541;23;20509;-81
2021/04/26 10:12:22;;;;;;;3.20;2.43;;;12.60;61.80;;;;;;5106325;23;20447;-81
2021/04/26 10:14:25;;;;;;;3.37;3.07;;;12.80;62.20;;;;;;5106444;23;20447;-81
2021/04/26 10:16:36;;;;;;;3.40;2.80;;;13.00;62.20;;;;;;5106719;23;20447;-81
2021/04/26 10:18:41;;;;;;;3.43;2.60;;;13.20;61.60;;;;;;5107112;23;20539;-81
2021/04/26 10:20:45;;;;;;;3.33;2.50;;;13.10;60.90;;;;;;5107695;23;20457;-82
2021/04/26 10:22:49;;;;;;;3.10;2.53;;;12.60;61.00;;;;;;5107920;23;20465;-83
2021/04/26 10:24:55;;;;;;;5.77;3.57;;;12.30;61.80;;;;;;5101080;23;20451;-81
2021/04/26 10:27:01;;;;;;;5.30;2.60;;;12.00;62.10;;;;;;5102461;23;20517;-83
2021/04/26 10:29:09;;;;;;;4.40;2.87;;;12.00;62.50;;;;;;5111516;23;20450;-83
2021/04/26 10:31:14;;;;;;;3.17;2.83;;;12.00;62.30;;;;;;5102525;23;20470;-83
2021/04/26 10:33:16;;;;;;;3.03;2.50;;;12.30;62.60;;;;;;5102368;23;20455;-81
2021/04/26 10:35:19;;;;;;;4.00;2.73;;;12.20;62.70;;;;;;5109925;23;20730;-84
2021/04/26 10:37:23;;;;;;;4.03;2.83;;;12.40;62.30;;;;;;5102482;23;20970;-82
2021/04/26 10:39:26;;;;;;;3.17;2.10;;;12.40;62.30;;;;;;5101559;23;20832;-83
2021/04/26 10:41:56;;;;;;;3.27;2.53;;;12.90;62.20;;;;;;5102218;23;20458;-81
2021/04/26 10:43:59;;;;;;;3.80;2.77;;;13.80;62.00;;;;;;5109468;23;20480;-82
2021/04/26 10:46:20;;;;;;;3.57;2.90;;;14.30;60.30;;;;;;5101371;23;20486;-82
2021/04/26 10:48:23;;;;;;;3.00;2.60;;;14.90;59.90;;;;;;5101434;23;20455;-82
2021/04/26 10:50:38;;;;;;;7.27;3.37;;;14.90;58.60;;;;;;5109133;23;20447;-83